RJTA(METAR)
04/24 20:00
METAR RJTA 241100Z 18015KT 9999 -SHRA SCT010 BKN020 19/15 Q1013 RMK
4CU010 7CU020 A2992=
戻る
トップページへ戻る
IMOC Co,.Ltd.